Time;durP1;ratioP1;P1;durP2;ratioP2;P2;SDS_P1;SDS_P2;PMS_P1;PMS_P2;Temp;Humidity;BMP_temperature;BMP_pressure;BME280_temperature;BME280_humidity;BME280_pressure;Samples;Min_cycle;Max_cycle;Signal;HPM_P1;HPM_P2
2021/11/24 00:07:29;;;;;;;38.80;25.10;;;;;;;2.96;88.84;100264.70;435657;1310;145434;-64
2021/11/24 00:17:35;;;;;;;40.10;26.00;;;;;;;2.98;89.18;100257.06;435847;1309;143570;-63
2021/11/24 00:27:42;;;;;;;39.90;24.90;;;;;;;3.05;89.00;100261.23;435982;1309;142425;-63
2021/11/24 00:37:48;;;;;;;39.60;23.30;;;;;;;3.09;89.19;100266.48;435829;1309;153020;-65
2021/11/24 00:47:54;;;;;;;33.30;23.60;;;;;;;3.15;89.16;100267.41;434114;1309;145196;-65
2021/11/24 00:58:00;;;;;;;33.40;22.90;;;;;;;3.18;88.88;100262.50;436078;1309;141946;-64
2021/11/24 01:08:07;;;;;;;36.00;20.70;;;;;;;3.16;89.17;100255.78;436009;1309;142942;-65
2021/11/24 01:18:13;;;;;;;34.70;21.30;;;;;;;3.14;89.06;100254.45;435287;1309;142155;-65
2021/11/24 01:28:19;;;;;;;39.20;21.10;;;;;;;3.13;88.91;100250.67;436112;1309;142424;-65
2021/11/24 01:38:26;;;;;;;30.60;19.60;;;;;;;3.15;89.05;100244.74;435990;1310;142455;-65
2021/11/24 01:48:32;;;;;;;28.30;19.10;;;;;;;3.12;89.29;100238.23;432924;1313;142864;-66
2021/11/24 01:58:40;;;;;;;27.40;17.30;;;;;;;3.11;89.25;100231.33;420455;1308;142676;-65
2021/11/24 02:08:47;;;;;;;25.90;18.20;;;;;;;3.07;89.53;100220.69;433116;1312;143417;-65
2021/11/24 02:18:53;;;;;;;23.40;16.10;;;;;;;3.09;89.40;100211.48;435857;1308;142674;-65
2021/11/24 02:28:59;;;;;;;18.30;14.60;;;;;;;3.11;89.35;100207.63;436063;1310;142519;-65
2021/11/24 02:39:06;;;;;;;18.30;12.90;;;;;;;3.13;89.54;100202.41;434044;1310;143999;-65
2021/11/24 02:49:13;;;;;;;19.80;14.70;;;;;;;3.14;89.17;100195.65;436084;1309;141866;-65
2021/11/24 02:59:21;;;;;;;19.90;15.10;;;;;;;3.15;89.59;100190.42;435937;1310;141824;-65
2021/11/24 03:09:28;;;;;;;19.90;15.90;;;;;;;3.17;89.45;100176.02;433070;1312;142851;-65
2021/11/24 03:19:34;;;;;;;23.50;15.40;;;;;;;3.18;89.05;100159.38;435915;1313;144918;-65
2021/11/24 03:29:42;;;;;;;16.90;14.20;;;;;;;3.19;89.46;100164.38;429750;1310;142247;-61
2021/11/24 03:39:49;;;;;;;18.30;14.10;;;;;;;3.17;89.31;100163.20;434662;1312;142298;-65
2021/11/24 03:49:55;;;;;;;17.80;13.50;;;;;;;3.14;89.02;100163.80;434692;1308;142724;-65
2021/11/24 04:00:03;;;;;;;21.00;14.20;;;;;;;3.16;89.34;100161.16;435000;1313;141785;-65
2021/11/24 04:10:08;;;;;;;;;;;;;;;3.13;89.30;100155.52;436109;1311;142955;-65
2021/11/24 04:20:18;;;;;;;16.20;13.20;;;;;;;3.10;89.31;100150.76;436193;1311;128504;-65
2021/11/24 04:30:25;;;;;;;15.90;12.30;;;;;;;3.09;89.03;100150.94;424177;1313;143419;-63
2021/11/24 04:40:32;;;;;;;17.40;14.10;;;;;;;3.05;89.03;100156.21;419508;1313;141907;-65
2021/11/24 04:50:39;;;;;;;15.90;12.60;;;;;;;3.04;89.05;100152.45;431813;1313;142923;-65
2021/11/24 05:00:46;;;;;;;19.20;13.00;;;;;;;3.04;88.98;100140.69;430282;1312;141624;-66
2021/11/24 05:10:52;;;;;;;17.20;14.80;;;;;;;3.03;89.29;100136.73;434430;1312;142877;-65
2021/11/24 05:21:05;;;;;;;17.50;13.70;;;;;;;3.06;89.31;100138.73;434411;1310;142472;-65
2021/11/24 05:31:13;;;;;;;19.10;14.20;;;;;;;3.07;89.14;100141.48;434682;1309;142038;-65
2021/11/24 05:41:19;;;;;;;16.10;12.60;;;;;;;3.07;89.38;100141.47;435702;1309;141183;-65
2021/11/24 05:51:26;;;;;;;16.30;13.10;;;;;;;3.08;89.28;100137.82;433883;1313;143682;-67
2021/11/24 06:01:32;;;;;;;20.40;15.50;;;;;;;3.10;89.08;100143.83;435676;1306;142439;-65
2021/11/24 06:11:39;;;;;;;19.60;14.20;;;;;;;3.08;88.98;100149.73;435892;1309;142269;-65
2021/11/24 06:21:45;;;;;;;18.00;14.10;;;;;;;3.10;89.25;100154.20;431689;1309;142056;-65
2021/11/24 06:31:53;;;;;;;20.00;13.90;;;;;;;3.11;89.30;100149.86;427496;1309;141834;-64
2021/11/24 06:41:59;;;;;;;;;;;;;;;3.11;89.03;100158.00;421446;1307;143299;-65
2021/11/24 06:52:06;;;;;;;16.30;14.00;;;;;;;3.10;89.56;100151.27;434992;1309;128589;-66
2021/11/24 07:02:11;;;;;;;;;;;;;;;3.14;89.19;100161.02;434954;1310;142093;-65
2021/11/24 07:12:23;;;;;;;22.60;17.00;;;;;;;3.20;89.32;100164.85;431057;1310;128691;-65
2021/11/24 07:22:29;;;;;;;19.20;16.40;;;;;;;3.28;89.33;100174.86;435965;1310;141892;-66
2021/11/24 07:32:36;;;;;;;21.20;16.50;;;;;;;3.37;89.23;100180.20;432244;1310;142655;-65
2021/11/24 07:42:43;;;;;;;22.10;16.80;;;;;;;3.46;88.88;100169.60;435967;1307;142813;-65
2021/11/24 07:52:51;;;;;;;23.50;17.10;;;;;;;3.57;88.98;100163.96;435890;1309;142122;-62
2021/11/24 08:02:57;;;;;;;18.40;14.80;;;;;;;3.71;88.32;100161.69;432808;1310;143103;-62
2021/11/24 08:13:03;;;;;;;16.70;12.10;;;;;;;3.83;88.49;100158.75;422320;1309;141627;-64
2021/11/24 08:23:16;;;;;;;17.20;13.70;;;;;;;3.99;88.27;100156.62;429056;1309;200458;-63
2021/11/24 08:33:23;;;;;;;16.40;12.70;;;;;;;4.16;88.14;100158.73;434963;1310;142357;-62
2021/11/24 08:43:29;;;;;;;18.10;13.20;;;;;;;4.30;87.87;100163.19;432796;1310;141148;-68
2021/11/24 08:53:36;;;;;;;19.20;14.70;;;;;;;4.39;87.27;100159.30;435833;1310;144293;-67
2021/11/24 09:03:43;;;;;;;17.10;14.40;;;;;;;4.40;87.42;100162.56;430597;1309;142357;-64
2021/11/24 09:13:49;;;;;;;15.30;12.80;;;;;;;4.38;87.06;100158.80;432210;1309;142236;-70
2021/11/24 09:24:00;;;;;;;21.70;16.50;;;;;;;4.33;87.43;100150.30;434980;1309;142770;-68
2021/11/24 09:34:07;;;;;;;17.10;14.30;;;;;;;4.28;87.17;100141.58;435940;1309;143141;-71
2021/11/24 09:44:14;;;;;;;20.70;15.70;;;;;;;4.35;87.18;100135.16;435919;1309;141840;-71
2021/11/24 09:54:21;;;;;;;18.60;13.80;;;;;;;4.37;86.99;100139.77;434060;1305;142113;-64
2021/11/24 10:04:28;;;;;;;19.80;15.20;;;;;;;4.50;87.34;100138.49;434808;1309;142415;-66
2021/11/24 10:14:34;;;;;;;20.30;14.80;;;;;;;4.82;87.20;100126.45;435743;1304;142227;-69
2021/11/24 10:24:42;;;;;;;15.90;13.10;;;;;;;5.11;86.59;100118.06;435760;1309;141407;-63
2021/11/24 10:34:51;;;;;;;18.40;14.90;;;;;;;5.24;86.32;100109.14;435653;1307;142451;-59
2021/11/24 10:44:59;;;;;;;21.50;15.80;;;;;;;5.40;85.97;100105.48;432985;1309;142234;-59
2021/11/24 10:55:11;;;;;;;23.40;17.60;;;;;;;5.42;85.66;100094.44;434801;1309;143167;-73
2021/11/24 11:05:21;;;;;;;21.30;17.60;;;;;;;5.29;85.37;100086.90;436107;1309;142152;-66
2021/11/24 11:15:31;;;;;;;16.80;13.50;;;;;;;5.22;85.31;100084.55;435240;1309;142990;-66
2021/11/24 11:25:40;;;;;;;17.40;14.40;;;;;;;5.35;85.39;100074.02;429311;1307;287730;-64
2021/11/24 11:35:47;;;;;;;19.60;15.10;;;;;;;5.45;85.08;100063.77;428939;1309;141536;-63
2021/11/24 11:45:54;;;;;;;18.00;14.20;;;;;;;5.50;84.75;100055.10;422244;1310;141873;-67
2021/11/24 11:56:23;;;;;;;17.90;14.00;;;;;;;5.33;84.71;100050.14;435730;1309;142895;-62
2021/11/24 12:06:32;;;;;;;19.40;16.10;;;;;;;5.32;84.91;100045.49;433643;1310;144404;-67
2021/11/24 12:16:43;;;;;;;19.10;14.50;;;;;;;5.20;84.65;100040.34;435834;1309;142173;-68
2021/11/24 12:26:59;;;;;;;17.80;14.00;;;;;;;4.94;84.70;100035.52;423142;1309;143280;-72
2021/11/24 12:37:05;;;;;;;16.20;12.80;;;;;;;4.82;85.02;100031.41;435874;1309;143698;-67
2021/11/24 12:47:11;;;;;;;16.80;13.60;;;;;;;4.78;84.89;100024.59;435964;1309;141955;-65
2021/11/24 12:57:18;;;;;;;24.30;17.20;;;;;;;4.83;84.91;100014.86;434133;1309;142539;-66
2021/11/24 13:07:26;;;;;;;20.10;15.40;;;;;;;4.93;85.03;100007.06;428832;1309;143783;-61
2021/11/24 13:17:35;;;;;;;13.50;12.10;;;;;;;5.02;85.00;100012.33;433078;1304;141169;-62
2021/11/24 13:27:47;;;;;;;11.60;10.10;;;;;;;4.98;84.67;100003.29;435890;1309;141964;-69
2021/11/24 13:37:54;;;;;;;11.70;10.20;;;;;;;4.95;84.65;99998.32;435829;1309;143681;-66
2021/11/24 13:48:11;;;;;;;16.00;13.10;;;;;;;4.91;84.88;99995.67;435187;1309;142797;-72
2021/11/24 13:58:22;;;;;;;16.50;12.80;;;;;;;4.85;84.93;99988.08;434070;1309;141519;-70
2021/11/24 14:08:36;;;;;;;16.70;12.50;;;;;;;4.76;84.89;99983.02;435889;1309;142150;-74
2021/11/24 14:18:43;;;;;;;15.00;12.80;;;;;;;4.66;85.08;99976.75;435105;1309;142492;-64
2021/11/24 14:28:49;;;;;;;16.50;13.30;;;;;;;4.60;84.95;99973.48;429914;1310;141733;-67
2021/11/24 14:39:11;;;;;;;19.60;15.30;;;;;;;4.53;85.30;99973.54;432397;1309;141856;-66
2021/11/24 14:49:18;;;;;;;20.80;16.30;;;;;;;4.44;85.37;99974.87;430357;1309;142326;-60
2021/11/24 14:59:24;;;;;;;22.00;16.50;;;;;;;4.43;85.95;99977.84;428473;1310;142063;-62
2021/11/24 15:09:30;;;;;;;21.80;14.70;;;;;;;4.49;86.05;99974.34;434422;1310;141211;-59
2021/11/24 15:19:37;;;;;;;18.60;15.40;;;;;;;4.55;86.15;99977.63;433880;1309;141501;-60
2021/11/24 15:29:44;;;;;;;24.30;16.80;;;;;;;4.56;85.86;99964.60;434787;1310;142146;-68
2021/11/24 15:39:52;;;;;;;22.00;17.60;;;;;;;4.58;85.97;99962.60;420137;1309;20003420;-69
2021/11/24 15:49:58;;;;;;;23.20;17.90;;;;;;;4.62;86.10;99960.91;435318;1310;141708;-65
2021/11/24 16:00:06;;;;;;;20.00;15.40;;;;;;;4.67;86.24;99960.41;427467;1308;141356;-64
2021/11/24 16:10:13;;;;;;;21.30;14.90;;;;;;;4.71;85.76;99960.29;434698;1309;141559;-63
2021/11/24 16:20:20;;;;;;;18.40;14.80;;;;;;;4.58;85.65;99957.25;434713;1309;143726;-69
2021/11/24 16:30:27;;;;;;;20.40;15.80;;;;;;;4.56;86.00;99950.04;433722;1309;143271;-72
2021/11/24 16:40:34;;;;;;;18.70;13.80;;;;;;;4.51;85.70;99945.16;434229;1309;141636;-71
2021/11/24 16:50:41;;;;;;;19.10;14.90;;;;;;;4.48;85.88;99940.77;420366;1308;10001528;-64
2021/11/24 17:00:47;;;;;;;18.00;15.40;;;;;;;4.44;85.87;99941.77;421508;1309;197394;-69
2021/11/24 17:10:53;;;;;;;20.70;13.60;;;;;;;4.45;85.94;99934.10;435976;1309;142613;-68
2021/11/24 17:21:02;;;;;;;13.40;11.40;;;;;;;4.48;85.70;99932.43;433996;1309;142062;-69
2021/11/24 17:31:09;;;;;;;16.80;13.00;;;;;;;4.48;85.77;99929.30;436222;1309;141291;-66
2021/11/24 17:41:15;;;;;;;20.20;14.10;;;;;;;4.54;85.73;99919.60;434706;1309;141890;-68
2021/11/24 17:51:23;;;;;;;19.20;15.70;;;;;;;4.51;85.57;99912.92;433945;1309;142306;-67
2021/11/24 18:01:49;;;;;;;24.70;16.60;;;;;;;4.48;85.58;99910.93;428588;1306;10002467;-68
2021/11/24 18:11:57;;;;;;;26.80;19.70;;;;;;;4.41;85.40;99902.86;433823;1305;142456;-61
2021/11/24 18:22:03;;;;;;;25.50;19.90;;;;;;;4.44;85.62;99894.60;435915;1309;141417;-61
2021/11/24 18:32:14;;;;;;;30.60;20.50;;;;;;;4.46;85.75;99884.98;435133;1309;141942;-61
2021/11/24 18:42:20;;;;;;;33.60;19.00;;;;;;;4.43;85.68;99881.95;434816;1307;141637;-62
2021/11/24 18:52:28;;;;;;;27.70;17.30;;;;;;;4.37;85.85;99882.19;435954;1309;141061;-61
2021/11/24 19:02:38;;;;;;;32.90;21.50;;;;;;;4.36;85.68;99882.92;433695;1309;142240;-62
2021/11/24 19:12:46;;;;;;;31.40;19.00;;;;;;;4.32;85.54;99875.76;435575;1309;141387;-63
2021/11/24 19:22:51;;;;;;;;;;;;;;;4.33;85.64;99869.16;435116;1312;159875;-70
2021/11/24 19:32:58;;;;;;;34.60;25.60;;;;;;;4.36;85.74;99870.78;434377;1313;127649;-67
2021/11/24 19:43:04;;;;;;;30.20;23.00;;;;;;;4.29;85.92;99867.35;435495;1309;142229;-68
2021/11/24 19:53:12;;;;;;;43.70;29.30;;;;;;;4.30;85.56;99862.12;435587;1309;141349;-69
2021/11/24 20:03:19;;;;;;;68.80;39.80;;;;;;;4.35;86.02;99861.82;421324;1310;142255;-69
2021/11/24 20:13:26;;;;;;;42.80;28.60;;;;;;;4.31;85.68;99854.81;420152;1310;142140;-70
2021/11/24 20:23:34;;;;;;;37.90;25.90;;;;;;;4.26;85.89;99849.27;424729;1308;141861;-68
2021/11/24 20:33:41;;;;;;;37.40;25.90;;;;;;;4.32;85.78;99841.61;434963;1311;142418;-75
2021/11/24 20:43:47;;;;;;;36.70;26.10;;;;;;;4.41;85.74;99837.85;432099;1313;142558;-74
2021/11/24 20:53:54;;;;;;;41.30;27.50;;;;;;;4.47;85.67;99832.95;435358;1310;143714;-74
2021/11/24 21:04:01;;;;;;;40.40;28.30;;;;;;;4.50;85.21;99834.41;426262;1314;141391;-72
2021/11/24 21:14:08;;;;;;;35.10;26.10;;;;;;;4.50;85.36;99823.31;423612;1310;142356;-74
2021/11/24 21:24:16;;;;;;;37.10;24.20;;;;;;;4.45;85.29;99816.05;419614;1313;141323;-74
2021/11/24 21:34:21;;;;;;;;;;;;;;;4.43;85.25;99815.41;428632;1313;142039;-74
2021/11/24 21:44:27;;;;;;;35.80;24.20;;;;;;;4.42;85.47;99818.21;436139;1315;129316;-75
2021/11/24 21:54:34;;;;;;;32.90;23.00;;;;;;;4.47;85.16;99816.48;434941;1310;141785;-75
2021/11/24 22:04:40;;;;;;;37.40;26.10;;;;;;;4.43;84.91;99799.30;435646;1310;142199;-75
2021/11/24 22:14:47;;;;;;;32.30;23.20;;;;;;;4.39;84.81;99788.17;429956;1310;142549;-74
2021/11/24 22:24:55;;;;;;;33.40;22.40;;;;;;;4.34;84.66;99778.98;427705;1310;142169;-71
2021/11/24 22:35:02;;;;;;;29.50;20.20;;;;;;;4.29;84.54;99765.28;420620;1309;141654;-71
2021/11/24 22:45:09;;;;;;;29.70;21.90;;;;;;;4.23;84.57;99753.70;434578;1309;141512;-71
2021/11/24 22:55:16;;;;;;;22.10;17.10;;;;;;;4.20;84.30;99751.23;436015;1310;142173;-72
2021/11/24 23:05:22;;;;;;;26.80;17.20;;;;;;;4.23;84.08;99737.94;436117;1309;142086;-64
2021/11/24 23:15:29;;;;;;;24.30;16.90;;;;;;;4.24;83.94;99727.51;434538;1309;142640;-67
2021/11/24 23:25:37;;;;;;;21.70;16.90;;;;;;;4.23;83.47;99721.85;430210;1309;141261;-65
2021/11/24 23:35:42;;;;;;;;;;;;;;;4.19;83.21;99701.17;434066;1310;142132;-65
2021/11/24 23:45:49;;;;;;;22.00;16.50;;;;;;;4.17;82.84;99685.48;435145;1309;127534;-62
2021/11/24 23:55:56;;;;;;;17.80;14.60;;;;;;;4.15;82.59;99681.23;435903;1309;141824;-62
